Time;durP1;ratioP1;P1;durP2;ratioP2;P2;SDS_P1;SDS_P2;PMS_P1;PMS_P2;Temp;Humidity;BMP_temperature;BMP_pressure;BME280_temperature;BME280_humidity;BME280_pressure;Samples;Min_cycle;Max_cycle;Signal;HPM_P1;HPM_P2
2021/01/11 00:00:15;;;;;;;5.97;3.00;;;1.60;78.10;;;;;;5092469;28;20599;-80
2021/01/11 00:02:41;;;;;;;4.32;3.30;;;1.70;77.90;;;;;;5092198;28;20132;-82
2021/01/11 00:05:07;;;;;;;3.20;2.77;;;1.70;78.70;;;;;;5092772;28;20565;-78
2021/01/11 00:07:33;;;;;;;4.33;2.97;;;1.70;79.00;;;;;;5094058;28;20023;-77
2021/01/11 00:09:59;;;;;;;6.63;2.80;;;1.70;78.90;;;;;;5094605;28;20111;-79
2021/01/11 00:12:24;;;;;;;4.17;2.73;;;1.70;78.70;;;;;;5111894;28;20484;-79
2021/01/11 00:14:50;;;;;;;3.20;2.90;;;1.70;78.10;;;;;;5094525;28;20031;-79
2021/01/11 00:17:16;;;;;;;4.37;2.87;;;1.60;77.90;;;;;;5112683;28;20024;-79
2021/01/11 00:19:41;;;;;;;4.87;3.37;;;1.60;77.90;;;;;;5112743;28;20113;-79
2021/01/11 00:22:07;;;;;;;3.00;2.80;;;1.70;78.50;;;;;;5094350;28;20028;-79
2021/01/11 00:24:33;;;;;;;5.90;3.73;;;1.70;78.70;;;;;;5112495;28;20469;-79
2021/01/11 00:26:59;;;;;;;4.37;3.17;;;1.70;78.70;;;;;;5094516;28;20553;-79
2021/01/11 00:29:25;;;;;;;4.83;3.73;;;1.60;78.60;;;;;;5094954;28;20023;-79
2021/01/11 00:31:50;;;;;;;3.73;2.97;;;1.60;77.80;;;;;;5112725;28;20508;-79
2021/01/11 00:34:17;;;;;;;4.00;3.10;;;1.50;78.30;;;;;;5094918;28;20028;-79
2021/01/11 00:36:50;;;;;;;6.60;3.00;;;1.60;78.30;;;;;;5094608;28;20036;-79
2021/01/11 00:39:16;;;;;;;3.63;3.20;;;1.50;77.90;;;;;;5094695;28;20032;-79
2021/01/11 00:41:42;;;;;;;2.63;2.43;;;1.60;78.30;;;;;;5095120;28;20110;-78
2021/01/11 00:44:07;;;;;;;3.70;2.80;;;1.60;78.50;;;;;;5112962;28;20054;-79
2021/01/11 00:46:33;;;;;;;2.70;2.50;;;1.60;78.70;;;;;;5113166;28;20126;-79
2021/01/11 00:48:59;;;;;;;2.97;2.70;;;1.50;78.20;;;;;;5094983;28;20020;-79
2021/01/11 00:51:25;;;;;;;4.63;2.70;;;1.40;78.10;;;;;;5094585;28;20039;-78
2021/01/11 00:53:51;;;;;;;3.73;2.70;;;1.40;77.80;;;;;;5094707;28;20028;-79
2021/01/11 00:56:19;;;;;;;3.73;2.93;;;1.40;77.90;;;;;;5113008;28;20031;-79
2021/01/11 00:58:45;;;;;;;3.63;2.93;;;1.40;78.00;;;;;;5094187;28;20023;-79
2021/01/11 01:01:13;;;;;;;3.73;2.87;;;1.30;78.60;;;;;;5112480;28;20055;-79
2021/01/11 01:03:39;;;;;;;3.10;2.80;;;1.40;78.90;;;;;;5112980;28;20020;-79
2021/01/11 01:06:07;;;;;;;3.33;2.80;;;1.40;78.50;;;;;;5112261;28;20044;-79
2021/01/11 01:08:33;;;;;;;5.23;3.20;;;1.40;77.80;;;;;;5094655;28;20024;-79
2021/01/11 01:10:58;;;;;;;4.27;3.33;;;1.40;77.80;;;;;;5112941;28;20389;-79
2021/01/11 01:13:24;;;;;;;4.70;3.13;;;1.30;77.60;;;;;;5094614;28;20481;-78
2021/01/11 01:15:50;;;;;;;4.30;3.10;;;1.40;77.50;;;;;;5094349;28;20048;-79
2021/01/11 01:18:15;;;;;;;5.30;2.80;;;1.40;77.20;;;;;;5094548;28;20397;-79
2021/01/11 01:20:41;;;;;;;3.57;3.17;;;1.40;77.10;;;;;;5094698;28;20023;-78
2021/01/11 01:23:07;;;;;;;4.57;2.97;;;1.40;76.50;;;;;;5112939;28;20058;-79
2021/01/11 01:25:32;;;;;;;4.37;3.97;;;1.50;76.60;;;;;;5115304;28;20051;-78
2021/01/11 01:27:58;;;;;;;2.67;2.30;;;1.40;76.70;;;;;;5116557;28;20030;-78
2021/01/11 01:30:24;;;;;;;4.80;3.90;;;1.50;76.90;;;;;;5098159;28;20539;-78
2021/01/11 01:32:49;;;;;;;4.33;2.97;;;1.40;77.40;;;;;;5097990;28;20370;-78
2021/01/11 01:35:15;;;;;;;4.37;3.13;;;1.40;77.80;;;;;;5097920;28;20050;-78
2021/01/11 01:37:41;;;;;;;4.20;3.30;;;1.30;77.90;;;;;;5116412;28;20057;-79
2021/01/11 01:40:07;;;;;;;6.47;3.30;;;1.30;77.70;;;;;;5098104;28;20023;-78
2021/01/11 01:42:33;;;;;;;4.23;3.10;;;1.20;77.60;;;;;;5097790;28;20028;-79
2021/01/11 01:44:59;;;;;;;3.00;2.50;;;1.20;77.90;;;;;;5115948;28;20560;-78
2021/01/11 01:47:25;;;;;;;5.27;3.27;;;1.20;78.00;;;;;;5125184;27;20053;-79
2021/01/11 01:49:51;;;;;;;3.50;3.20;;;1.30;77.70;;;;;;5136686;27;20388;-79
2021/01/11 01:52:18;;;;;;;4.37;2.93;;;1.30;77.30;;;;;;5123847;27;20016;-79
2021/01/11 01:54:44;;;;;;;3.83;2.87;;;1.30;77.60;;;;;;5097774;28;20098;-79
2021/01/11 01:57:10;;;;;;;3.60;2.77;;;1.30;77.40;;;;;;5097747;28;20114;-79
2021/01/11 01:59:35;;;;;;;3.43;3.17;;;1.30;77.50;;;;;;5097432;28;20019;-79
2021/01/11 02:02:04;;;;;;;3.53;2.63;;;1.30;76.90;;;;;;5097517;28;20107;-79
2021/01/11 02:04:29;;;;;;;3.70;3.30;;;1.20;76.60;;;;;;5115541;28;20397;-79
2021/01/11 02:07:00;;;;;;;3.60;3.20;;;1.20;76.80;;;;;;5097333;28;20028;-79
2021/01/11 02:09:59;;;;;;;3.53;3.07;;;1.20;76.70;;;;;;5115475;28;20028;-78
2021/01/11 02:12:34;;;;;;;3.20;2.87;;;1.20;76.80;;;;;;5085834;28;20385;-79
2021/01/11 02:15:07;;;;;;;5.73;3.23;;;1.20;77.20;;;;;;5115557;28;20031;-79
2021/01/11 02:17:42;;;;;;;4.50;3.30;;;1.20;78.10;;;;;;5097274;28;20081;-78
2021/01/11 02:20:16;;;;;;;5.33;3.30;;;1.20;78.70;;;;;;5115382;28;20381;-79
2021/01/11 02:23:03;;;;;;;3.13;2.83;;;1.20;79.50;;;;;;5096899;28;20486;-79
2021/01/11 02:25:53;;;;;;;6.30;2.97;;;1.20;78.80;;;;;;5097020;28;20485;-79
2021/01/11 02:28:56;;;;;;;4.17;3.73;;;1.20;78.30;;;;;;5115176;28;20024;-79
2021/01/11 02:31:23;;;;;;;6.27;2.73;;;1.20;78.10;;;;;;5096891;28;20505;-79
2021/01/11 02:33:51;;;;;;;3.80;3.17;;;1.20;77.80;;;;;;5096564;28;20106;-79
2021/01/11 02:36:18;;;;;;;4.80;3.47;;;1.20;78.20;;;;;;5096554;28;20666;-79
2021/01/11 02:38:44;;;;;;;4.17;3.47;;;1.20;78.40;;;;;;5096899;28;20161;-79
2021/01/11 02:41:10;;;;;;;3.00;2.70;;;1.20;78.40;;;;;;5114746;28;20458;-78
2021/01/11 02:43:35;;;;;;;3.13;2.93;;;1.20;77.50;;;;;;5114781;28;20570;-79
2021/01/11 02:46:01;;;;;;;3.30;3.00;;;1.20;77.00;;;;;;5114865;28;20027;-79
2021/01/11 02:48:48;;;;;;;3.30;3.00;;;1.10;77.20;;;;;;5115018;28;20076;-78
2021/01/11 02:51:23;;;;;;;3.83;3.07;;;1.00;78.60;;;;;;5114686;28;20104;-78
2021/01/11 02:53:55;;;;;;;3.67;3.10;;;1.00;78.40;;;;;;5114902;28;20020;-79
2021/01/11 02:56:59;;;;;;;4.82;3.00;;;1.00;78.90;;;;;;5114644;28;20104;-78
2021/01/11 02:59:43;;;;;;;3.67;3.30;;;0.90;78.80;;;;;;5045726;28;20065;-79
2021/01/11 03:02:12;;;;;;;3.30;3.00;;;0.90;79.00;;;;;;5096305;28;20027;-78
2021/01/11 03:04:38;;;;;;;4.17;3.40;;;1.00;79.30;;;;;;5114257;28;20497;-78
2021/01/11 03:07:09;;;;;;;4.10;3.23;;;1.00;79.10;;;;;;5114477;28;20543;-78
2021/01/11 03:09:39;;;;;;;3.20;2.90;;;0.90;79.10;;;;;;5096338;28;20032;-78
2021/01/11 03:12:06;;;;;;;3.10;2.90;;;1.00;78.70;;;;;;5096066;28;20035;-78
2021/01/11 03:14:32;;;;;;;3.80;2.63;;;1.00;78.40;;;;;;5114478;28;20408;-78
2021/01/11 03:16:58;;;;;;;3.27;2.97;;;1.00;78.70;;;;;;5095893;28;20027;-78
2021/01/11 03:19:23;;;;;;;4.03;3.00;;;1.00;78.40;;;;;;5114373;28;20081;-78
2021/01/11 03:21:50;;;;;;;3.47;3.13;;;0.90;78.80;;;;;;5095767;28;20560;-78
2021/01/11 03:24:16;;;;;;;3.10;2.80;;;1.00;79.50;;;;;;5114184;28;20035;-78
2021/01/11 03:26:42;;;;;;;3.40;3.10;;;1.00;79.30;;;;;;5095899;28;20031;-78
2021/01/11 03:29:08;;;;;;;4.07;3.17;;;1.00;79.40;;;;;;5095949;28;20023;-78
2021/01/11 03:31:34;;;;;;;2.90;2.70;;;0.90;79.50;;;;;;5095714;28;20412;-78
2021/01/11 03:34:00;;;;;;;3.73;3.10;;;1.00;79.80;;;;;;5095502;28;20023;-78
2021/01/11 03:36:25;;;;;;;4.53;3.13;;;0.90;79.70;;;;;;5114114;28;20031;-78
2021/01/11 03:38:51;;;;;;;3.17;2.87;;;0.90;79.80;;;;;;5114056;28;20023;-78
2021/01/11 03:41:17;;;;;;;3.20;2.70;;;0.80;80.00;;;;;;5095649;28;20111;-78
2021/01/11 03:43:44;;;;;;;3.67;3.20;;;0.80;79.20;;;;;;5113605;28;20031;-78
2021/01/11 03:46:15;;;;;;;7.57;2.73;;;0.90;78.90;;;;;;5095504;28;20556;-79
2021/01/11 03:48:42;;;;;;;4.23;3.07;;;0.90;78.30;;;;;;5095076;28;20488;-78
2021/01/11 03:51:08;;;;;;;4.07;2.90;;;1.00;78.70;;;;;;5094968;28;20031;-78
2021/01/11 03:53:34;;;;;;;2.93;2.63;;;1.00;78.70;;;;;;5095441;28;20200;-78
2021/01/11 03:56:04;;;;;;;3.40;3.10;;;1.00;78.50;;;;;;5102108;27;20031;-78
2021/01/11 03:58:30;;;;;;;2.83;2.60;;;1.00;78.60;;;;;;5113744;28;20027;-78
2021/01/11 04:00:59;;;;;;;4.77;2.90;;;1.00;78.80;;;;;;5113453;28;20035;-78
2021/01/11 04:03:25;;;;;;;3.50;2.83;;;1.00;77.80;;;;;;5095488;28;20085;-78
2021/01/11 04:05:51;;;;;;;4.27;3.23;;;0.90;78.00;;;;;;5112939;28;20105;-78
2021/01/11 04:08:17;;;;;;;2.77;2.40;;;0.90;78.60;;;;;;5113724;28;20096;-78
2021/01/11 04:10:43;;;;;;;5.70;2.63;;;0.90;78.70;;;;;;5095016;28;20431;-78
2021/01/11 04:13:08;;;;;;;4.77;3.27;;;0.90;78.60;;;;;;5113504;28;20375;-78
2021/01/11 04:15:34;;;;;;;3.27;2.97;;;0.80;78.50;;;;;;5095209;28;20028;-78
2021/01/11 04:18:00;;;;;;;5.20;3.00;;;0.80;78.40;;;;;;5113036;28;20027;-78
2021/01/11 04:20:27;;;;;;;3.90;3.10;;;0.80;78.10;;;;;;5094921;28;20119;-78
2021/01/11 04:22:52;;;;;;;4.23;3.83;;;0.90;78.10;;;;;;5113306;28;20024;-78
2021/01/11 04:25:19;;;;;;;3.30;3.00;;;0.90;78.40;;;;;;5094930;28;20031;-79
2021/01/11 04:27:44;;;;;;;3.00;2.80;;;0.90;78.00;;;;;;5113437;28;20028;-78
2021/01/11 04:30:11;;;;;;;3.27;2.60;;;0.90;77.90;;;;;;5113199;28;20496;-78
2021/01/11 04:32:41;;;;;;;2.93;2.70;;;0.90;78.00;;;;;;5095106;28;20024;-79
2021/01/11 04:35:08;;;;;;;4.57;2.80;;;0.90;77.80;;;;;;5112496;28;20028;-78
2021/01/11 04:37:35;;;;;;;3.77;2.80;;;0.90;78.00;;;;;;5095084;28;20032;-78
2021/01/11 04:40:01;;;;;;;4.17;2.73;;;0.80;77.50;;;;;;5094675;28;20032;-78
2021/01/11 04:43:08;;;;;;;4.00;2.60;;;0.80;77.50;;;;;;5113104;28;20068;-79
2021/01/11 04:45:34;;;;;;;3.73;3.17;;;0.80;77.40;;;;;;5094532;28;20042;-78
2021/01/11 04:48:01;;;;;;;3.47;3.17;;;0.80;77.70;;;;;;5113135;28;20028;-78
2021/01/11 04:50:28;;;;;;;3.10;2.77;;;0.70;78.00;;;;;;5113279;28;20031;-79
2021/01/11 04:52:54;;;;;;;5.50;2.93;;;0.70;78.40;;;;;;5113131;28;20053;-79
2021/01/11 04:55:20;;;;;;;2.90;2.70;;;0.70;78.60;;;;;;5094836;28;20111;-79
2021/01/11 04:57:56;;;;;;;3.77;2.87;;;0.60;78.80;;;;;;5113109;28;20027;-78
2021/01/11 05:00:27;;;;;;;3.70;3.20;;;0.60;79.20;;;;;;5117158;28;20047;-79
2021/01/11 05:03:11;;;;;;;3.70;2.57;;;0.60;79.80;;;;;;5116721;28;20106;-79
2021/01/11 05:05:43;;;;;;;2.83;2.57;;;0.60;79.30;;;;;;5116782;28;20066;-79
2021/01/11 05:08:09;;;;;;;3.30;2.87;;;0.60;78.60;;;;;;5098754;28;20110;-79
2021/01/11 05:10:40;;;;;;;4.03;3.10;;;0.70;78.50;;;;;;5098701;28;20046;-79
2021/01/11 05:13:07;;;;;;;2.70;2.50;;;0.70;78.70;;;;;;5116728;28;20023;-79
2021/01/11 05:15:38;;;;;;;3.27;2.63;;;0.70;78.60;;;;;;5098464;28;20396;-79
2021/01/11 05:18:14;;;;;;;2.87;2.23;;;0.70;77.80;;;;;;5098422;28;20479;-79
2021/01/11 05:20:40;;;;;;;2.77;2.23;;;0.70;77.30;;;;;;5116705;28;20104;-79
2021/01/11 05:23:14;;;;;;;2.93;2.53;;;0.70;77.00;;;;;;5098041;28;20419;-79
2021/01/11 05:25:41;;;;;;;2.33;2.13;;;0.70;77.20;;;;;;5098007;28;20051;-79
2021/01/11 05:28:07;;;;;;;3.20;2.67;;;0.70;77.10;;;;;;5098222;28;20486;-79
2021/01/11 05:30:41;;;;;;;5.00;2.60;;;0.70;76.50;;;;;;5116417;28;20027;-78
2021/01/11 05:33:08;;;;;;;2.97;2.70;;;0.60;76.30;;;;;;5098150;28;20107;-79
2021/01/11 05:35:36;;;;;;;2.53;2.33;;;0.60;76.80;;;;;;5116374;28;20030;-79
2021/01/11 05:38:12;;;;;;;7.67;2.90;;;0.60;77.50;;;;;;5096972;28;20419;-78
2021/01/11 05:40:38;;;;;;;4.37;2.80;;;0.60;77.60;;;;;;5094986;28;20027;-78
2021/01/11 05:43:04;;;;;;;2.90;2.60;;;0.60;77.20;;;;;;5095591;28;20038;-78
2021/01/11 05:45:33;;;;;;;2.63;2.37;;;0.60;77.50;;;;;;5114016;28;20103;-78
2021/01/11 05:48:00;;;;;;;3.37;2.67;;;0.70;77.20;;;;;;5101761;28;20439;-78
2021/01/11 05:50:49;;;;;;;4.13;2.70;;;0.70;77.30;;;;;;5113221;28;20488;-78
2021/01/11 05:53:22;;;;;;;3.97;2.93;;;0.70;77.60;;;;;;5095192;28;20031;-78
2021/01/11 05:55:51;;;;;;;5.40;2.80;;;0.70;77.20;;;;;;5113378;28;20019;-78
2021/01/11 05:58:22;;;;;;;5.50;2.50;;;0.70;77.50;;;;;;5113880;28;20098;-79
2021/01/11 06:00:48;;;;;;;3.43;2.60;;;0.70;77.10;;;;;;5116170;28;20532;-79
2021/01/11 06:03:16;;;;;;;7.03;2.87;;;0.70;76.60;;;;;;5097373;28;20020;-79
2021/01/11 06:05:42;;;;;;;3.30;3.00;;;0.80;76.50;;;;;;5115460;28;20058;-79
2021/01/11 06:08:13;;;;;;;3.67;2.53;;;0.80;75.70;;;;;;5115524;28;20048;-79
2021/01/11 06:10:40;;;;;;;3.00;2.73;;;0.70;75.00;;;;;;5115088;28;20027;-79
2021/01/11 06:13:10;;;;;;;2.97;2.67;;;0.80;74.80;;;;;;5115382;28;20477;-79
2021/01/11 06:15:37;;;;;;;4.00;2.77;;;0.80;74.70;;;;;;5115508;28;20485;-79
2021/01/11 06:18:11;;;;;;;5.07;3.03;;;0.80;75.70;;;;;;5115428;28;20098;-79
2021/01/11 06:20:45;;;;;;;5.47;2.80;;;0.70;76.00;;;;;;5117353;27;20023;-79
2021/01/11 06:23:11;;;;;;;7.37;3.37;;;0.70;75.90;;;;;;5097338;28;20622;-79
2021/01/11 06:25:38;;;;;;;3.20;2.80;;;0.60;76.20;;;;;;5096662;28;20031;-79
2021/01/11 06:28:06;;;;;;;3.87;2.70;;;0.70;75.80;;;;;;5096900;28;20054;-79
2021/01/11 06:30:38;;;;;;;4.43;3.03;;;0.80;75.60;;;;;;5096822;28;20024;-79
2021/01/11 06:33:11;;;;;;;3.97;3.17;;;0.80;75.60;;;;;;5096711;28;20024;-79
2021/01/11 06:35:48;;;;;;;4.00;3.53;;;0.80;75.50;;;;;;5096641;28;20655;-79
2021/01/11 06:38:20;;;;;;;5.87;4.20;;;0.80;74.90;;;;;;5114860;28;20022;-79
2021/01/11 06:41:11;;;;;;;13.20;3.92;;;0.80;75.60;;;;;;5096298;28;20695;-78
2021/01/11 06:43:53;;;;;;;4.63;3.20;;;0.80;76.00;;;;;;5096032;28;20020;-79
2021/01/11 06:46:28;;;;;;;8.45;4.28;;;0.70;76.30;;;;;;5114339;28;20054;-78
2021/01/11 06:49:01;;;;;;;6.30;4.37;;;0.70;76.50;;;;;;5096585;28;20024;-78
2021/01/11 06:51:44;;;;;;;5.53;4.03;;;0.70;76.50;;;;;;5096776;28;20062;-78
2021/01/11 06:54:14;;;;;;;9.40;4.13;;;0.80;76.30;;;;;;5096597;28;20107;-78
2021/01/11 06:56:41;;;;;;;4.90;3.90;;;0.80;76.70;;;;;;5114462;28;20119;-78
2021/01/11 06:59:08;;;;;;;7.00;3.90;;;0.70;76.60;;;;;;5114823;28;20110;-78
2021/01/11 07:01:38;;;;;;;5.57;3.57;;;0.60;77.30;;;;;;5096022;28;20053;-78
2021/01/11 07:04:05;;;;;;;5.47;4.50;;;0.70;77.70;;;;;;5096172;28;20027;-78
2021/01/11 07:06:38;;;;;;;5.23;4.20;;;0.60;78.00;;;;;;5095909;28;20038;-78
2021/01/11 07:09:17;;;;;;;4.87;4.23;;;0.70;78.50;;;;;;5096205;28;20512;-78
2021/01/11 07:11:48;;;;;;;10.37;4.53;;;0.60;79.00;;;;;;5096431;28;20016;-78
2021/01/11 07:14:15;;;;;;;11.87;5.07;;;0.60;79.00;;;;;;5096298;28;20024;-78
2021/01/11 07:16:56;;;;;;;6.53;4.80;;;0.60;79.30;;;;;;5095856;28;20030;-78
2021/01/11 07:19:36;;;;;;;12.77;5.23;;;0.60;79.20;;;;;;5114247;28;20765;-78
2021/01/11 07:22:09;;;;;;;8.20;4.77;;;0.60;79.00;;;;;;5113334;28;20066;-78
2021/01/11 07:24:37;;;;;;;5.83;4.77;;;0.60;79.20;;;;;;5114034;28;20027;-78
2021/01/11 07:27:03;;;;;;;7.90;4.60;;;0.50;79.30;;;;;;5095755;28;20027;-78
2021/01/11 07:29:32;;;;;;;6.13;4.23;;;0.50;78.80;;;;;;5113680;28;20020;-77
2021/01/11 07:31:58;;;;;;;7.80;4.20;;;0.50;79.10;;;;;;5095660;28;20136;-77
2021/01/11 07:34:24;;;;;;;5.00;3.70;;;0.50;79.30;;;;;;5113861;28;20040;-77
2021/01/11 07:36:54;;;;;;;6.43;4.13;;;0.50;79.20;;;;;;5095178;28;20491;-77
2021/01/11 07:39:30;;;;;;;5.73;4.33;;;0.50;79.30;;;;;;5095846;28;20354;-77
2021/01/11 07:42:00;;;;;;;6.87;4.50;;;0.50;79.20;;;;;;5095239;28;20024;-77
2021/01/11 07:44:31;;;;;;;6.47;4.87;;;0.50;78.60;;;;;;5095677;28;20028;-77
2021/01/11 07:47:04;;;;;;;9.73;5.43;;;0.50;78.80;;;;;;5113886;28;20019;-76
2021/01/11 07:49:33;;;;;;;9.27;6.27;;;0.50;79.30;;;;;;5113904;28;20338;-76
2021/01/11 07:52:06;;;;;;;9.47;7.03;;;0.60;79.40;;;;;;5095244;28;20033;-78
2021/01/11 07:54:32;;;;;;;15.83;8.73;;;0.60;79.50;;;;;;5113932;27;20035;-78
2021/01/11 07:56:58;;;;;;;21.57;9.60;;;0.60;79.20;;;;;;5112082;28;20023;-76
2021/01/11 07:59:24;;;;;;;19.57;9.53;;;0.60;78.80;;;;;;5094428;28;20030;-77
2021/01/11 08:01:53;;;;;;;20.10;9.77;;;0.60;78.80;;;;;;5114737;27;20053;-76
2021/01/11 08:04:19;;;;;;;21.10;10.57;;;0.70;79.00;;;;;;5103403;28;20036;-76
2021/01/11 08:06:52;;;;;;;18.50;8.80;;;0.70;79.30;;;;;;5116588;27;20039;-76
2021/01/11 08:09:19;;;;;;;14.53;8.43;;;0.70;78.90;;;;;;5112914;28;20031;-77
2021/01/11 08:11:46;;;;;;;19.80;8.27;;;0.70;78.90;;;;;;5112626;28;20552;-76
2021/01/11 08:14:12;;;;;;;11.80;7.30;;;0.80;78.90;;;;;;5114812;27;20020;-76
2021/01/11 08:16:40;;;;;;;12.00;7.57;;;0.80;78.70;;;;;;5094081;28;20056;-76
2021/01/11 08:19:10;;;;;;;13.13;6.70;;;0.90;78.80;;;;;;5092723;28;20028;-76
2021/01/11 08:21:36;;;;;;;14.60;6.70;;;0.90;79.10;;;;;;5116583;28;20035;-76
2021/01/11 08:24:06;;;;;;;23.57;9.33;;;0.90;78.60;;;;;;5096070;28;20024;-79
2021/01/11 08:26:39;;;;;;;20.93;9.90;;;0.90;78.40;;;;;;5112219;28;20081;-78
2021/01/11 08:29:07;;;;;;;12.30;6.90;;;0.90;78.60;;;;;;5112486;28;20042;-76
2021/01/11 08:31:33;;;;;;;8.50;4.80;;;0.90;78.40;;;;;;5093381;28;20047;-76
2021/01/11 08:33:59;;;;;;;13.97;4.87;;;1.00;77.80;;;;;;5095741;28;20050;-76
2021/01/11 08:36:25;;;;;;;11.60;5.30;;;1.00;77.60;;;;;;5116859;28;20489;-78
2021/01/11 08:39:06;;;;;;;9.47;5.17;;;1.10;77.70;;;;;;5118051;27;20031;-76
2021/01/11 08:41:33;;;;;;;8.60;4.20;;;1.10;77.70;;;;;;5098239;28;20073;-76
2021/01/11 08:43:59;;;;;;;7.17;4.53;;;1.20;77.50;;;;;;5098378;28;20072;-76
2021/01/11 08:46:52;;;;;;;9.50;4.50;;;1.20;77.10;;;;;;5098419;28;20489;-76
2021/01/11 08:49:18;;;;;;;;;;;1.30;77.30;;;;;;5093634;28;20047;-79
2021/01/11 08:51:45;;;;;;;8.83;4.40;;;1.30;77.50;;;;;;5116977;28;19952;-79
2021/01/11 08:54:10;;;;;;;19.57;6.30;;;1.30;77.10;;;;;;5116052;28;20069;-79
2021/01/11 08:56:37;;;;;;;9.43;4.37;;;1.30;76.90;;;;;;5120960;27;20031;-76
2021/01/11 08:59:03;;;;;;;7.30;4.07;;;1.30;76.70;;;;;;5121256;27;20031;-79
2021/01/11 09:01:34;;;;;;;7.23;4.37;;;1.40;76.90;;;;;;5097032;28;20028;-79
2021/01/11 09:03:59;;;;;;;7.43;4.67;;;1.50;77.10;;;;;;5097465;28;20076;-77
2021/01/11 09:06:35;;;;;;;10.17;4.57;;;1.60;77.10;;;;;;5115818;28;20027;-76
2021/01/11 09:09:08;;;;;;;9.10;4.57;;;1.60;76.90;;;;;;5100703;28;20059;-76
2021/01/11 09:11:34;;;;;;;9.33;5.27;;;1.80;76.70;;;;;;5116283;28;20393;-76
2021/01/11 09:14:07;;;;;;;7.57;5.17;;;1.80;76.50;;;;;;5121090;27;20046;-76
2021/01/11 09:16:33;;;;;;;8.80;5.13;;;1.90;76.80;;;;;;5117009;27;20030;-78
2021/01/11 09:19:10;;;;;;;9.70;4.63;;;2.00;77.10;;;;;;5095074;28;20035;-78
2021/01/11 09:21:36;;;;;;;16.10;6.00;;;2.00;77.10;;;;;;5094949;28;20077;-78
2021/01/11 09:24:02;;;;;;;14.50;5.93;;;2.00;77.30;;;;;;5114378;28;20020;-78
2021/01/11 09:26:33;;;;;;;12.70;6.13;;;2.10;77.60;;;;;;5113135;28;20028;-78
2021/01/11 09:29:16;;;;;;;14.67;6.00;;;2.20;77.50;;;;;;5100041;27;20438;-78
2021/01/11 09:31:41;;;;;;;12.17;5.23;;;2.20;77.70;;;;;;5125978;27;20595;-78
2021/01/11 09:34:07;;;;;;;21.77;7.87;;;2.30;77.80;;;;;;5089408;28;20617;-76
2021/01/11 09:36:35;;;;;;;10.00;6.30;;;2.40;78.10;;;;;;5091064;28;20634;-76
2021/01/11 09:39:02;;;;;;;13.50;7.07;;;2.40;78.50;;;;;;5092347;28;20020;-79
2021/01/11 09:41:27;;;;;;;10.03;6.17;;;2.50;78.40;;;;;;5112066;28;20024;-75
2021/01/11 09:43:53;;;;;;;11.33;6.30;;;2.50;77.60;;;;;;5113630;27;20018;-76
2021/01/11 09:46:19;;;;;;;13.00;6.07;;;2.60;77.40;;;;;;5112346;27;20550;-76
2021/01/11 09:48:44;;;;;;;12.30;6.20;;;2.70;77.30;;;;;;5114804;27;20039;-76
2021/01/11 09:51:10;;;;;;;16.60;6.40;;;2.80;77.50;;;;;;5117015;27;20015;-76
2021/01/11 09:53:35;;;;;;;10.43;6.40;;;2.90;78.10;;;;;;5110284;28;20020;-76
2021/01/11 09:56:01;;;;;;;13.87;7.07;;;2.90;77.30;;;;;;5114119;27;20031;-76
2021/01/11 09:58:27;;;;;;;10.00;5.80;;;3.00;77.50;;;;;;5115914;27;20087;-76
2021/01/11 10:00:52;;;;;;;21.70;6.80;;;3.10;77.10;;;;;;5093138;28;20393;-77
2021/01/11 10:03:21;;;;;;;12.77;7.23;;;3.10;77.00;;;;;;5109188;27;20646;-76
2021/01/11 10:05:57;;;;;;;12.23;7.13;;;3.10;78.00;;;;;;5113835;27;20381;-76
2021/01/11 10:08:23;;;;;;;11.93;6.90;;;3.20;79.60;;;;;;5095171;28;20028;-76
2021/01/11 10:10:49;;;;;;;9.23;6.03;;;3.20;78.60;;;;;;5093610;28;20031;-76
2021/01/11 10:13:15;;;;;;;9.37;5.83;;;3.30;78.20;;;;;;5106104;28;20552;-76
2021/01/11 10:15:40;;;;;;;10.20;5.60;;;3.40;77.60;;;;;;5089296;28;20481;-76
2021/01/11 10:18:06;;;;;;;8.20;5.83;;;3.40;77.60;;;;;;5107854;27;20023;-76
2021/01/11 10:20:31;;;;;;;8.23;5.93;;;3.50;77.80;;;;;;5117171;27;20093;-76
2021/01/11 10:22:57;;;;;;;8.97;6.50;;;3.50;77.80;;;;;;5107207;28;20671;-76
2021/01/11 10:25:23;;;;;;;9.57;6.43;;;3.50;77.20;;;;;;5092938;28;20039;-76
2021/01/11 10:27:52;;;;;;;10.27;5.87;;;3.50;76.40;;;;;;5106953;28;20120;-76
2021/01/11 10:30:18;;;;;;;11.17;6.30;;;3.50;77.10;;;;;;5091238;28;20019;-76
2021/01/11 10:32:44;;;;;;;11.43;6.37;;;3.60;77.50;;;;;;5090594;28;20250;-76
2021/01/11 10:35:10;;;;;;;10.87;6.63;;;3.70;78.00;;;;;;5111538;27;20115;-77
2021/01/11 10:37:36;;;;;;;10.17;5.93;;;3.70;77.60;;;;;;5100509;27;20015;-79
2021/01/11 10:40:02;;;;;;;9.90;5.97;;;3.80;77.80;;;;;;5113758;27;20472;-79
2021/01/11 10:42:27;;;;;;;15.60;5.67;;;3.80;78.00;;;;;;5114436;28;20027;-79
2021/01/11 10:44:54;;;;;;;13.67;6.63;;;3.90;78.30;;;;;;5096400;28;20027;-78
2021/01/11 10:47:19;;;;;;;8.07;5.63;;;4.00;76.80;;;;;;5098955;27;20469;-79
2021/01/11 10:49:45;;;;;;;9.13;6.00;;;4.00;76.50;;;;;;5099753;27;20023;-78
2021/01/11 10:52:11;;;;;;;8.70;5.60;;;4.00;75.80;;;;;;5117556;27;20031;-79
2021/01/11 10:54:36;;;;;;;10.93;6.93;;;4.10;76.60;;;;;;5113893;28;20046;-77
2021/01/11 10:57:02;;;;;;;13.83;6.53;;;4.10;76.40;;;;;;5112814;28;20030;-76
2021/01/11 10:59:29;;;;;;;10.80;7.15;;;4.20;75.90;;;;;;5113370;28;20358;-77
2021/01/11 11:01:55;;;;;;;12.00;5.73;;;4.10;75.30;;;;;;5113693;28;20071;-79
2021/01/11 11:04:23;;;;;;;15.57;7.90;;;4.20;74.80;;;;;;5113688;28;20464;-79
2021/01/11 11:06:49;;;;;;;10.37;7.03;;;4.20;75.20;;;;;;5095478;28;20442;-76
2021/01/11 11:09:15;;;;;;;11.50;6.28;;;4.20;75.30;;;;;;5113462;28;20492;-78
2021/01/11 11:11:41;;;;;;;12.87;7.07;;;4.30;75.70;;;;;;5112910;28;20030;-78
2021/01/11 11:14:07;;;;;;;12.70;7.07;;;4.40;75.70;;;;;;5094307;28;20102;-79
2021/01/11 11:16:33;;;;;;;10.70;6.30;;;4.30;74.00;;;;;;5094526;28;20024;-79
2021/01/11 11:18:58;;;;;;;11.97;7.57;;;4.30;74.40;;;;;;5112474;28;20098;-79
2021/01/11 11:21:24;;;;;;;12.02;7.32;;;4.40;75.40;;;;;;5112330;28;20153;-79
2021/01/11 11:23:49;;;;;;;10.93;6.93;;;4.40;75.00;;;;;;5112636;28;20016;-79
2021/01/11 11:26:20;;;;;;;12.45;6.90;;;4.50;75.40;;;;;;5113387;28;20049;-76
2021/01/11 11:28:46;;;;;;;10.48;6.63;;;4.60;74.50;;;;;;5113514;28;20525;-76
2021/01/11 11:31:12;;;;;;;11.55;7.85;;;4.50;74.10;;;;;;5113725;28;20145;-76
2021/01/11 11:33:40;;;;;;;10.48;7.05;;;4.50;73.90;;;;;;5095206;28;20019;-76
2021/01/11 11:36:05;;;;;;;8.93;6.50;;;4.60;74.80;;;;;;5094734;28;20031;-77
2021/01/11 11:38:31;;;;;;;10.25;6.50;;;4.60;74.30;;;;;;5095148;28;20024;-76
2021/01/11 11:40:57;;;;;;;12.32;6.80;;;4.60;73.40;;;;;;5113608;28;20492;-79
2021/01/11 11:43:23;;;;;;;13.80;7.70;;;4.50;73.30;;;;;;5113313;28;20028;-79
2021/01/11 11:45:49;;;;;;;12.95;6.57;;;4.50;73.00;;;;;;5094864;28;20076;-77
2021/01/11 11:48:16;;;;;;;12.13;7.30;;;4.60;73.00;;;;;;5094659;28;20473;-76
2021/01/11 11:50:42;;;;;;;12.10;7.13;;;4.60;74.10;;;;;;5112876;28;20090;-76
2021/01/11 11:53:08;;;;;;;12.63;7.60;;;4.60;74.50;;;;;;5105281;28;20034;-76
2021/01/11 11:55:34;;;;;;;10.65;7.72;;;4.60;73.40;;;;;;5113051;28;20098;-76
2021/01/11 11:58:00;;;;;;;13.05;7.35;;;4.60;72.10;;;;;;5112025;28;20070;-76
2021/01/11 12:00:26;;;;;;;11.75;7.22;;;4.60;72.00;;;;;;5105835;28;20055;-76
2021/01/11 12:02:51;;;;;;;14.02;7.07;;;4.70;73.20;;;;;;5093324;28;20072;-76
2021/01/11 12:05:18;;;;;;;11.20;6.63;;;4.70;73.20;;;;;;5111707;28;20040;-76
2021/01/11 12:07:48;;;;;;;12.30;7.28;;;4.70;71.60;;;;;;5112465;28;20020;-76
2021/01/11 12:10:14;;;;;;;15.68;7.88;;;4.70;72.60;;;;;;5112609;28;20016;-76
2021/01/11 12:12:40;;;;;;;12.38;7.68;;;4.70;71.80;;;;;;5094544;28;20027;-76
2021/01/11 12:15:07;;;;;;;9.95;7.20;;;4.70;72.20;;;;;;5112557;28;20019;-77
2021/01/11 12:17:33;;;;;;;11.45;7.13;;;4.70;72.30;;;;;;5112846;28;20033;-76
2021/01/11 12:19:58;;;;;;;12.70;8.05;;;4.80;73.00;;;;;;5094849;28;20098;-76
2021/01/11 12:22:26;;;;;;;12.38;7.68;;;4.80;73.90;;;;;;5094333;28;20111;-76
2021/01/11 12:24:51;;;;;;;11.70;8.13;;;4.90;74.10;;;;;;5112621;28;20018;-76
2021/01/11 12:27:17;;;;;;;13.13;8.25;;;4.90;72.90;;;;;;5112343;28;20023;-76
2021/01/11 12:29:43;;;;;;;15.77;9.05;;;4.90;73.20;;;;;;5094168;28;20385;-76
2021/01/11 12:32:09;;;;;;;14.77;8.85;;;5.00;73.10;;;;;;5112732;28;20024;-76
2021/01/11 12:34:39;;;;;;;12.73;8.35;;;4.90;72.70;;;;;;5112922;28;20081;-76
2021/01/11 12:37:11;;;;;;;20.40;9.00;;;5.00;73.30;;;;;;5094124;28;20033;-76
2021/01/11 12:39:37;;;;;;;17.30;8.77;;;5.00;73.70;;;;;;5112821;28;20031;-76
2021/01/11 12:42:05;;;;;;;13.98;8.30;;;5.00;72.50;;;;;;5113027;28;20035;-76
2021/01/11 12:44:30;;;;;;;17.17;9.45;;;4.90;72.10;;;;;;5112213;28;20043;-76
2021/01/11 12:46:56;;;;;;;16.40;8.93;;;5.00;72.80;;;;;;5112421;28;20058;-77
2021/01/11 12:49:22;;;;;;;12.98;8.25;;;4.90;72.10;;;;;;5128332;28;20446;-76
2021/01/11 12:51:48;;;;;;;14.93;8.55;;;5.00;72.70;;;;;;5112259;28;20043;-77
2021/01/11 12:54:14;;;;;;;13.55;8.80;;;5.00;73.40;;;;;;5112689;28;20016;-76
2021/01/11 12:56:39;;;;;;;14.73;8.50;;;5.00;73.30;;;;;;5094353;28;20011;-76
2021/01/11 12:59:05;;;;;;;13.85;7.93;;;4.90;71.50;;;;;;5112395;28;20115;-76